sensor_id;sensor_type;location;lat;lon;timestamp;pressure;altitude;pressure_sealevel;temperature;humidity
11085;BME280;5596;46.826;8.650;2022-11-15T00:02:00;96062.06;;;10.25;85.63
11085;BME280;5596;46.826;8.650;2022-11-15T00:04:49;96055.16;;;10.17;86.16
11085;BME280;5596;46.826;8.650;2022-11-15T00:07:35;96057.63;;;10.19;85.85
11085;BME280;5596;46.826;8.650;2022-11-15T00:10:20;96060.16;;;10.14;87.18
11085;BME280;5596;46.826;8.650;2022-11-15T00:13:06;96070.63;;;10.10;89.24
11085;BME280;5596;46.826;8.650;2022-11-15T00:15:52;96068.72;;;9.99;90.38
11085;BME280;5596;46.826;8.650;2022-11-15T00:18:37;96065.66;;;9.96;90.58
11085;BME280;5596;46.826;8.650;2022-11-15T00:21:24;96069.78;;;9.86;90.45
11085;BME280;5596;46.826;8.650;2022-11-15T00:24:10;96070.81;;;9.97;91.37
11085;BME280;5596;46.826;8.650;2022-11-15T00:26:56;96060.59;;;9.87;91.76
11085;BME280;5596;46.826;8.650;2022-11-15T00:29:42;96067.41;;;9.90;91.99
11085;BME280;5596;46.826;8.650;2022-11-15T00:32:30;96070.81;;;9.97;91.67
11085;BME280;5596;46.826;8.650;2022-11-15T00:35:17;96064.38;;;9.98;92.40
11085;BME280;5596;46.826;8.650;2022-11-15T00:38:06;96061.91;;;9.97;92.63
11085;BME280;5596;46.826;8.650;2022-11-15T00:40:52;96046.53;;;9.97;92.85
11085;BME280;5596;46.826;8.650;2022-11-15T00:43:38;96059.13;;;10.03;94.75
11085;BME280;5596;46.826;8.650;2022-11-15T00:46:25;96060.63;;;9.99;95.10
11085;BME280;5596;46.826;8.650;2022-11-15T00:49:10;96050.44;;;10.01;96.19
11085;BME280;5596;46.826;8.650;2022-11-15T00:51:55;96046.31;;;9.99;97.23
11085;BME280;5596;46.826;8.650;2022-11-15T00:54:42;96038.13;;;9.94;99.07
11085;BME280;5596;46.826;8.650;2022-11-15T00:57:28;96026.97;;;9.90;100.00
11085;BME280;5596;46.826;8.650;2022-11-15T01:00:14;96031.53;;;9.90;100.00
11085;BME280;5596;46.826;8.650;2022-11-15T01:03:00;96030.38;;;9.85;100.00
11085;BME280;5596;46.826;8.650;2022-11-15T01:05:46;96028.13;;;9.82;100.00
11085;BME280;5596;46.826;8.650;2022-11-15T01:08:32;96022.03;;;9.75;100.00
11085;BME280;5596;46.826;8.650;2022-11-15T01:11:19;96030.81;;;9.71;100.00
11085;BME280;5596;46.826;8.650;2022-11-15T01:14:05;96024.47;;;9.65;100.00
11085;BME280;5596;46.826;8.650;2022-11-15T01:16:50;96018.38;;;9.58;100.00
11085;BME280;5596;46.826;8.650;2022-11-15T01:19:36;96023.63;;;9.53;100.00
11085;BME280;5596;46.826;8.650;2022-11-15T01:22:22;96010.75;;;9.43;100.00
11085;BME280;5596;46.826;8.650;2022-11-15T01:25:08;96014.56;;;9.36;100.00
11085;BME280;5596;46.826;8.650;2022-11-15T01:27:55;96004.72;;;9.30;100.00
11085;BME280;5596;46.826;8.650;2022-11-15T01:30:41;95992.28;;;9.29;100.00
11085;BME280;5596;46.826;8.650;2022-11-15T01:33:27;95976.59;;;9.26;100.00
11085;BME280;5596;46.826;8.650;2022-11-15T01:36:14;95982.44;;;9.23;100.00
11085;BME280;5596;46.826;8.650;2022-11-15T01:39:01;95983.72;;;9.20;100.00
11085;BME280;5596;46.826;8.650;2022-11-15T01:41:47;61776.25;;;-141.59;100.00
11085;BME280;5596;46.826;8.650;2022-11-15T01:44:45;61776.25;;;-141.59;100.00
11085;BME280;5596;46.826;8.650;2022-11-15T01:47:36;61776.25;;;-141.59;100.00
11085;BME280;5596;46.826;8.650;2022-11-15T01:50:25;61776.25;;;-141.59;100.00
11085;BME280;5596;46.826;8.650;2022-11-15T01:53:12;61776.25;;;-141.59;100.00
11085;BME280;5596;46.826;8.650;2022-11-15T01:56:01;61776.25;;;-141.59;100.00
11085;BME280;5596;46.826;8.650;2022-11-15T01:58:48;61776.25;;;-141.59;100.00
11085;BME280;5596;46.826;8.650;2022-11-15T02:01:38;61776.25;;;-141.59;100.00
11085;BME280;5596;46.826;8.650;2022-11-15T02:04:26;61776.25;;;-141.59;100.00
11085;BME280;5596;46.826;8.650;2022-11-15T02:07:15;61776.25;;;-141.59;100.00
11085;BME280;5596;46.826;8.650;2022-11-15T02:10:06;61776.25;;;-141.59;100.00
11085;BME280;5596;46.826;8.650;2022-11-15T02:12:53;61776.25;;;-141.59;100.00
11085;BME280;5596;46.826;8.650;2022-11-15T02:15:46;61776.25;;;-141.59;100.00
11085;BME280;5596;46.826;8.650;2022-11-15T02:18:41;61776.25;;;-141.59;100.00
11085;BME280;5596;46.826;8.650;2022-11-15T02:21:37;61776.25;;;-141.59;100.00
11085;BME280;5596;46.826;8.650;2022-11-15T02:24:48;61776.25;;;-141.59;100.00
11085;BME280;5596;46.826;8.650;2022-11-15T02:28:16;61776.25;;;-141.59;100.00
11085;BME280;5596;46.826;8.650;2022-11-15T02:31:14;61776.25;;;-141.59;100.00
11085;BME280;5596;46.826;8.650;2022-11-15T02:34:08;61776.25;;;-141.59;100.00
11085;BME280;5596;46.826;8.650;2022-11-15T02:37:03;61776.25;;;-141.59;100.00
11085;BME280;5596;46.826;8.650;2022-11-15T02:39:59;61776.25;;;-141.59;100.00
11085;BME280;5596;46.826;8.650;2022-11-15T02:42:50;61776.25;;;-141.59;100.00
11085;BME280;5596;46.826;8.650;2022-11-15T02:46:02;61776.25;;;-141.59;100.00
11085;BME280;5596;46.826;8.650;2022-11-15T02:48:54;61776.25;;;-141.59;100.00
11085;BME280;5596;46.826;8.650;2022-11-15T02:51:41;61776.25;;;-141.59;100.00
11085;BME280;5596;46.826;8.650;2022-11-15T02:54:30;61776.25;;;-141.59;100.00
11085;BME280;5596;46.826;8.650;2022-11-15T02:57:18;61776.25;;;-141.59;100.00
11085;BME280;5596;46.826;8.650;2022-11-15T03:00:10;61776.25;;;-141.59;100.00
11085;BME280;5596;46.826;8.650;2022-11-15T03:03:11;61776.25;;;-141.59;100.00
11085;BME280;5596;46.826;8.650;2022-11-15T03:06:08;61776.25;;;-141.59;100.00
11085;BME280;5596;46.826;8.650;2022-11-15T03:09:04;61776.25;;;-141.59;100.00
11085;BME280;5596;46.826;8.650;2022-11-15T03:11:57;61776.25;;;-141.59;100.00
11085;BME280;5596;46.826;8.650;2022-11-15T03:14:50;61776.25;;;-141.59;100.00
11085;BME280;5596;46.826;8.650;2022-11-15T03:17:44;61776.25;;;-141.59;100.00
11085;BME280;5596;46.826;8.650;2022-11-15T03:20:35;61776.25;;;-141.59;100.00
11085;BME280;5596;46.826;8.650;2022-11-15T03:23:23;61776.25;;;-141.59;100.00
11085;BME280;5596;46.826;8.650;2022-11-15T03:26:13;61776.25;;;-141.59;100.00
11085;BME280;5596;46.826;8.650;2022-11-15T03:29:03;61776.25;;;-141.59;100.00
11085;BME280;5596;46.826;8.650;2022-11-15T03:31:54;61776.25;;;-141.59;100.00
11085;BME280;5596;46.826;8.650;2022-11-15T03:34:45;61776.25;;;-141.59;100.00
11085;BME280;5596;46.826;8.650;2022-11-15T03:37:35;61776.25;;;-141.59;100.00
11085;BME280;5596;46.826;8.650;2022-11-15T03:40:30;61776.25;;;-141.59;100.00
11085;BME280;5596;46.826;8.650;2022-11-15T03:43:24;61776.25;;;-141.59;100.00
11085;BME280;5596;46.826;8.650;2022-11-15T03:46:15;61776.25;;;-141.59;100.00
11085;BME280;5596;46.826;8.650;2022-11-15T03:49:07;61776.25;;;-141.59;100.00
11085;BME280;5596;46.826;8.650;2022-11-15T03:51:56;61776.25;;;-141.59;100.00
11085;BME280;5596;46.826;8.650;2022-11-15T03:54:54;61776.25;;;-141.59;100.00
11085;BME280;5596;46.826;8.650;2022-11-15T03:57:41;61776.25;;;-141.59;100.00
11085;BME280;5596;46.826;8.650;2022-11-15T04:00:27;61776.25;;;-141.59;100.00
11085;BME280;5596;46.826;8.650;2022-11-15T04:03:13;61776.25;;;-141.59;100.00
11085;BME280;5596;46.826;8.650;2022-11-15T04:05:59;61776.25;;;-141.59;100.00
11085;BME280;5596;46.826;8.650;2022-11-15T04:08:44;61776.25;;;-141.59;100.00
11085;BME280;5596;46.826;8.650;2022-11-15T04:11:30;61776.25;;;-141.59;100.00
11085;BME280;5596;46.826;8.650;2022-11-15T04:14:17;61776.25;;;-141.59;100.00
11085;BME280;5596;46.826;8.650;2022-11-15T04:17:02;61776.25;;;-141.59;100.00
11085;BME280;5596;46.826;8.650;2022-11-15T04:19:49;61776.25;;;-141.59;100.00
11085;BME280;5596;46.826;8.650;2022-11-15T04:23:03;61776.25;;;-141.59;100.00
11085;BME280;5596;46.826;8.650;2022-11-15T04:26:09;61776.25;;;-141.59;100.00
11085;BME280;5596;46.826;8.650;2022-11-15T04:28:57;61776.25;;;-141.59;100.00
11085;BME280;5596;46.826;8.650;2022-11-15T04:32:02;61776.25;;;-141.59;100.00
11085;BME280;5596;46.826;8.650;2022-11-15T04:34:48;61776.25;;;-141.59;100.00
11085;BME280;5596;46.826;8.650;2022-11-15T04:37:33;61776.25;;;-141.59;100.00
11085;BME280;5596;46.826;8.650;2022-11-15T04:40:19;61776.25;;;-141.59;100.00
11085;BME280;5596;46.826;8.650;2022-11-15T04:43:05;61776.25;;;-141.59;100.00
11085;BME280;5596;46.826;8.650;2022-11-15T04:45:50;61776.25;;;-141.59;100.00
11085;BME280;5596;46.826;8.650;2022-11-15T04:48:37;61776.25;;;-141.59;100.00
11085;BME280;5596;46.826;8.650;2022-11-15T04:51:23;61776.25;;;-141.59;100.00
11085;BME280;5596;46.826;8.650;2022-11-15T04:54:09;61776.25;;;-141.59;100.00
11085;BME280;5596;46.826;8.650;2022-11-15T04:56:55;61776.25;;;-141.59;100.00
11085;BME280;5596;46.826;8.650;2022-11-15T04:59:40;61776.25;;;-141.59;100.00
11085;BME280;5596;46.826;8.650;2022-11-15T05:02:26;61776.25;;;-141.59;100.00
11085;BME280;5596;46.826;8.650;2022-11-15T05:05:33;61776.25;;;-141.59;100.00
11085;BME280;5596;46.826;8.650;2022-11-15T05:08:18;61776.25;;;-141.59;100.00
11085;BME280;5596;46.826;8.650;2022-11-15T05:11:03;61776.25;;;-141.59;100.00
11085;BME280;5596;46.826;8.650;2022-11-15T05:13:49;61776.25;;;-141.59;100.00
11085;BME280;5596;46.826;8.650;2022-11-15T05:16:35;61776.25;;;-141.59;100.00
11085;BME280;5596;46.826;8.650;2022-11-15T05:19:21;61776.25;;;-141.59;100.00
11085;BME280;5596;46.826;8.650;2022-11-15T05:22:09;61776.25;;;-141.59;100.00
11085;BME280;5596;46.826;8.650;2022-11-15T05:24:55;61776.25;;;-141.59;100.00
11085;BME280;5596;46.826;8.650;2022-11-15T05:27:40;61776.25;;;-141.59;100.00
11085;BME280;5596;46.826;8.650;2022-11-15T05:30:25;61776.25;;;-141.59;100.00
11085;BME280;5596;46.826;8.650;2022-11-15T05:33:11;61776.25;;;-141.59;100.00
11085;BME280;5596;46.826;8.650;2022-11-15T05:36:01;61776.25;;;-141.59;100.00
11085;BME280;5596;46.826;8.650;2022-11-15T05:38:49;61776.25;;;-141.59;100.00
11085;BME280;5596;46.826;8.650;2022-11-15T05:41:38;61776.25;;;-141.59;100.00
11085;BME280;5596;46.826;8.650;2022-11-15T05:44:25;61776.25;;;-141.59;100.00
11085;BME280;5596;46.826;8.650;2022-11-15T05:47:15;61776.25;;;-141.59;100.00
11085;BME280;5596;46.826;8.650;2022-11-15T05:50:02;61776.25;;;-141.59;100.00
11085;BME280;5596;46.826;8.650;2022-11-15T05:52:47;61776.25;;;-141.59;100.00
11085;BME280;5596;46.826;8.650;2022-11-15T05:55:34;61776.25;;;-141.59;100.00
11085;BME280;5596;46.826;8.650;2022-11-15T05:58:20;61776.25;;;-141.59;100.00
11085;BME280;5596;46.826;8.650;2022-11-15T06:01:06;61776.25;;;-141.59;100.00
11085;BME280;5596;46.826;8.650;2022-11-15T06:03:52;61776.25;;;-141.59;100.00
11085;BME280;5596;46.826;8.650;2022-11-15T06:06:38;61776.25;;;-141.59;100.00
11085;BME280;5596;46.826;8.650;2022-11-15T06:09:24;61776.25;;;-141.59;100.00
11085;BME280;5596;46.826;8.650;2022-11-15T06:12:11;61776.25;;;-141.59;100.00
11085;BME280;5596;46.826;8.650;2022-11-15T06:14:56;61776.25;;;-141.59;100.00
11085;BME280;5596;46.826;8.650;2022-11-15T06:17:41;61776.25;;;-141.59;100.00
11085;BME280;5596;46.826;8.650;2022-11-15T06:20:28;61776.25;;;-141.59;100.00
11085;BME280;5596;46.826;8.650;2022-11-15T06:23:14;61776.25;;;-141.59;100.00
11085;BME280;5596;46.826;8.650;2022-11-15T06:26:00;61776.25;;;-141.59;100.00
11085;BME280;5596;46.826;8.650;2022-11-15T06:28:48;61776.25;;;-141.59;100.00
11085;BME280;5596;46.826;8.650;2022-11-15T06:31:34;61776.25;;;-141.59;100.00
11085;BME280;5596;46.826;8.650;2022-11-15T06:34:20;61776.25;;;-141.59;100.00
11085;BME280;5596;46.826;8.650;2022-11-15T06:37:05;61776.25;;;-141.59;100.00
11085;BME280;5596;46.826;8.650;2022-11-15T06:39:50;61776.25;;;-141.59;100.00
11085;BME280;5596;46.826;8.650;2022-11-15T06:42:36;61776.25;;;-141.59;100.00
11085;BME280;5596;46.826;8.650;2022-11-15T06:45:22;61776.25;;;-141.59;100.00
11085;BME280;5596;46.826;8.650;2022-11-15T06:48:08;61776.25;;;-141.59;100.00
11085;BME280;5596;46.826;8.650;2022-11-15T06:50:55;61776.25;;;-141.59;100.00
11085;BME280;5596;46.826;8.650;2022-11-15T06:53:40;61776.25;;;-141.59;100.00
11085;BME280;5596;46.826;8.650;2022-11-15T06:56:27;61776.25;;;-141.59;100.00
11085;BME280;5596;46.826;8.650;2022-11-15T06:59:12;61776.25;;;-141.59;100.00
11085;BME280;5596;46.826;8.650;2022-11-15T07:01:59;61776.25;;;-141.59;100.00
11085;BME280;5596;46.826;8.650;2022-11-15T07:04:45;61776.25;;;-141.59;100.00
11085;BME280;5596;46.826;8.650;2022-11-15T07:07:30;61776.25;;;-141.59;100.00
11085;BME280;5596;46.826;8.650;2022-11-15T07:10:16;61776.25;;;-141.59;100.00
11085;BME280;5596;46.826;8.650;2022-11-15T07:13:02;61776.25;;;-141.59;100.00
11085;BME280;5596;46.826;8.650;2022-11-15T07:15:48;61776.25;;;-141.59;100.00
11085;BME280;5596;46.826;8.650;2022-11-15T07:18:36;61776.25;;;-141.59;100.00
11085;BME280;5596;46.826;8.650;2022-11-15T07:21:22;61776.25;;;-141.59;100.00
11085;BME280;5596;46.826;8.650;2022-11-15T07:24:08;61776.25;;;-141.59;100.00
11085;BME280;5596;46.826;8.650;2022-11-15T07:26:55;61776.25;;;-141.59;100.00
11085;BME280;5596;46.826;8.650;2022-11-15T07:29:40;61776.25;;;-141.59;100.00
11085;BME280;5596;46.826;8.650;2022-11-15T07:32:27;61776.25;;;-141.59;100.00
11085;BME280;5596;46.826;8.650;2022-11-15T07:35:14;61776.25;;;-141.59;100.00
11085;BME280;5596;46.826;8.650;2022-11-15T07:38:01;61776.25;;;-141.59;100.00
11085;BME280;5596;46.826;8.650;2022-11-15T07:40:55;61776.25;;;-141.59;100.00
11085;BME280;5596;46.826;8.650;2022-11-15T07:43:41;61776.25;;;-141.59;100.00
11085;BME280;5596;46.826;8.650;2022-11-15T07:46:27;61776.25;;;-141.59;100.00
11085;BME280;5596;46.826;8.650;2022-11-15T07:49:12;61776.25;;;-141.59;100.00
11085;BME280;5596;46.826;8.650;2022-11-15T07:51:59;61776.25;;;-141.59;100.00
11085;BME280;5596;46.826;8.650;2022-11-15T07:54:44;61776.25;;;-141.59;100.00
11085;BME280;5596;46.826;8.650;2022-11-15T07:57:30;61776.25;;;-141.59;100.00
11085;BME280;5596;46.826;8.650;2022-11-15T08:00:17;61776.25;;;-141.59;100.00
11085;BME280;5596;46.826;8.650;2022-11-15T08:03:04;61776.25;;;-141.59;100.00
11085;BME280;5596;46.826;8.650;2022-11-15T08:05:50;61776.25;;;-141.59;100.00
11085;BME280;5596;46.826;8.650;2022-11-15T08:08:37;61776.25;;;-141.59;100.00
11085;BME280;5596;46.826;8.650;2022-11-15T08:11:23;61776.25;;;-141.59;100.00
11085;BME280;5596;46.826;8.650;2022-11-15T08:14:08;61776.25;;;-141.59;100.00
11085;BME280;5596;46.826;8.650;2022-11-15T08:16:54;61776.25;;;-141.59;100.00
11085;BME280;5596;46.826;8.650;2022-11-15T08:19:40;61776.25;;;-141.59;100.00
11085;BME280;5596;46.826;8.650;2022-11-15T08:22:25;61776.25;;;-141.59;100.00
11085;BME280;5596;46.826;8.650;2022-11-15T08:25:12;61776.25;;;-141.59;100.00
11085;BME280;5596;46.826;8.650;2022-11-15T08:27:59;61776.25;;;-141.59;100.00
11085;BME280;5596;46.826;8.650;2022-11-15T08:30:45;61776.25;;;-141.59;100.00
11085;BME280;5596;46.826;8.650;2022-11-15T08:33:32;61776.25;;;-141.59;100.00
11085;BME280;5596;46.826;8.650;2022-11-15T08:36:18;61776.25;;;-141.59;100.00
11085;BME280;5596;46.826;8.650;2022-11-15T08:39:03;61776.25;;;-141.59;100.00
11085;BME280;5596;46.826;8.650;2022-11-15T08:41:51;61776.25;;;-141.59;100.00
11085;BME280;5596;46.826;8.650;2022-11-15T08:44:37;61776.25;;;-141.59;100.00
11085;BME280;5596;46.826;8.650;2022-11-15T08:47:22;61776.25;;;-141.59;100.00
11085;BME280;5596;46.826;8.650;2022-11-15T08:50:08;61776.25;;;-141.59;100.00
11085;BME280;5596;46.826;8.650;2022-11-15T08:52:54;61776.25;;;-141.59;100.00
11085;BME280;5596;46.826;8.650;2022-11-15T08:55:40;61776.25;;;-141.59;100.00
11085;BME280;5596;46.826;8.650;2022-11-15T08:58:27;61776.25;;;-141.59;100.00
11085;BME280;5596;46.826;8.650;2022-11-15T09:01:15;61776.25;;;-141.59;100.00
11085;BME280;5596;46.826;8.650;2022-11-15T09:04:02;61776.25;;;-141.59;100.00
11085;BME280;5596;46.826;8.650;2022-11-15T09:06:49;61776.25;;;-141.59;100.00
11085;BME280;5596;46.826;8.650;2022-11-15T09:09:34;61776.25;;;-141.59;100.00
11085;BME280;5596;46.826;8.650;2022-11-15T09:12:20;61776.25;;;-141.59;100.00
11085;BME280;5596;46.826;8.650;2022-11-15T09:15:08;61776.25;;;-141.59;100.00
11085;BME280;5596;46.826;8.650;2022-11-15T09:17:53;61776.25;;;-141.59;100.00
11085;BME280;5596;46.826;8.650;2022-11-15T09:20:39;61776.25;;;-141.59;100.00
11085;BME280;5596;46.826;8.650;2022-11-15T09:23:24;61776.25;;;-141.59;100.00
11085;BME280;5596;46.826;8.650;2022-11-15T09:26:10;61776.25;;;-141.59;100.00
11085;BME280;5596;46.826;8.650;2022-11-15T09:28:56;61776.25;;;-141.59;100.00
11085;BME280;5596;46.826;8.650;2022-11-15T09:31:43;61776.25;;;-141.59;100.00
11085;BME280;5596;46.826;8.650;2022-11-15T09:34:28;61776.25;;;-141.59;100.00
11085;BME280;5596;46.826;8.650;2022-11-15T09:37:14;61776.25;;;-141.59;100.00
11085;BME280;5596;46.826;8.650;2022-11-15T09:39:59;61776.25;;;-141.59;100.00
11085;BME280;5596;46.826;8.650;2022-11-15T09:43:02;61776.25;;;-141.59;100.00
11085;BME280;5596;46.826;8.650;2022-11-15T09:45:57;61776.25;;;-141.59;100.00
11085;BME280;5596;46.826;8.650;2022-11-15T09:48:55;61776.25;;;-141.59;100.00
11085;BME280;5596;46.826;8.650;2022-11-15T09:51:44;61776.25;;;-141.59;100.00
11085;BME280;5596;46.826;8.650;2022-11-15T09:54:26;61776.25;;;-141.59;100.00
11085;BME280;5596;46.826;8.650;2022-11-15T09:56:56;61776.25;;;-141.59;100.00
11085;BME280;5596;46.826;8.650;2022-11-15T09:59:40;61776.25;;;-141.59;100.00
11085;BME280;5596;46.826;8.650;2022-11-15T10:02:19;61776.25;;;-141.59;100.00
11085;BME280;5596;46.826;8.650;2022-11-15T10:04:51;61776.25;;;-141.59;100.00
11085;BME280;5596;46.826;8.650;2022-11-15T10:07:24;61776.25;;;-141.59;100.00
11085;BME280;5596;46.826;8.650;2022-11-15T10:09:56;61776.25;;;-141.59;100.00
11085;BME280;5596;46.826;8.650;2022-11-15T10:12:27;61776.25;;;-141.59;100.00
11085;BME280;5596;46.826;8.650;2022-11-15T10:15:00;61776.25;;;-141.59;100.00
11085;BME280;5596;46.826;8.650;2022-11-15T10:17:52;61776.25;;;-141.59;100.00
11085;BME280;5596;46.826;8.650;2022-11-15T10:20:24;61776.25;;;-141.59;100.00
11085;BME280;5596;46.826;8.650;2022-11-15T10:22:54;61776.25;;;-141.59;100.00
11085;BME280;5596;46.826;8.650;2022-11-15T10:25:24;61776.25;;;-141.59;100.00
11085;BME280;5596;46.826;8.650;2022-11-15T10:27:55;61776.25;;;-141.59;100.00
11085;BME280;5596;46.826;8.650;2022-11-15T10:30:23;61776.25;;;-141.59;100.00
11085;BME280;5596;46.826;8.650;2022-11-15T10:32:56;61776.25;;;-141.59;100.00
11085;BME280;5596;46.826;8.650;2022-11-15T10:35:27;61776.25;;;-141.59;100.00
11085;BME280;5596;46.826;8.650;2022-11-15T10:38:04;61776.25;;;-141.59;100.00
11085;BME280;5596;46.826;8.650;2022-11-15T10:40:32;61776.25;;;-141.59;100.00
11085;BME280;5596;46.826;8.650;2022-11-15T10:43:17;61776.25;;;-141.59;100.00
11085;BME280;5596;46.826;8.650;2022-11-15T10:45:45;61776.25;;;-141.59;100.00
11085;BME280;5596;46.826;8.650;2022-11-15T10:48:23;61776.25;;;-141.59;100.00
11085;BME280;5596;46.826;8.650;2022-11-15T10:50:54;61776.25;;;-141.59;100.00
11085;BME280;5596;46.826;8.650;2022-11-15T10:53:25;61776.25;;;-141.59;100.00
11085;BME280;5596;46.826;8.650;2022-11-15T10:55:56;61776.25;;;-141.59;100.00
11085;BME280;5596;46.826;8.650;2022-11-15T10:58:32;61776.25;;;-141.59;100.00
11085;BME280;5596;46.826;8.650;2022-11-15T11:01:14;61776.25;;;-141.59;100.00
11085;BME280;5596;46.826;8.650;2022-11-15T11:03:43;61776.25;;;-141.59;100.00
11085;BME280;5596;46.826;8.650;2022-11-15T11:06:14;61776.25;;;-141.59;100.00
11085;BME280;5596;46.826;8.650;2022-11-15T11:08:55;61776.25;;;-141.59;100.00
11085;BME280;5596;46.826;8.650;2022-11-15T11:11:22;61776.25;;;-141.59;100.00
11085;BME280;5596;46.826;8.650;2022-11-15T11:13:53;61776.25;;;-141.59;100.00
11085;BME280;5596;46.826;8.650;2022-11-15T11:16:40;61776.25;;;-141.59;100.00
11085;BME280;5596;46.826;8.650;2022-11-15T11:19:21;61776.25;;;-141.59;100.00
11085;BME280;5596;46.826;8.650;2022-11-15T11:22:00;61776.25;;;-141.59;100.00
11085;BME280;5596;46.826;8.650;2022-11-15T11:24:38;61776.25;;;-141.59;100.00
11085;BME280;5596;46.826;8.650;2022-11-15T11:27:21;61776.25;;;-141.59;100.00
11085;BME280;5596;46.826;8.650;2022-11-15T11:30:02;61776.25;;;-141.59;100.00
11085;BME280;5596;46.826;8.650;2022-11-15T11:33:05;61776.25;;;-141.59;100.00
11085;BME280;5596;46.826;8.650;2022-11-15T11:35:45;61776.25;;;-141.59;100.00
11085;BME280;5596;46.826;8.650;2022-11-15T11:38:32;61776.25;;;-141.59;100.00
11085;BME280;5596;46.826;8.650;2022-11-15T11:41:10;61776.25;;;-141.59;100.00
11085;BME280;5596;46.826;8.650;2022-11-15T11:43:48;61776.25;;;-141.59;100.00
11085;BME280;5596;46.826;8.650;2022-11-15T11:49:16;61776.25;;;-141.59;100.00
11085;BME280;5596;46.826;8.650;2022-11-15T11:51:49;61776.25;;;-141.59;100.00
11085;BME280;5596;46.826;8.650;2022-11-15T11:54:22;61776.25;;;-141.59;100.00
11085;BME280;5596;46.826;8.650;2022-11-15T11:56:50;61776.25;;;-141.59;100.00
11085;BME280;5596;46.826;8.650;2022-11-15T11:59:25;61776.25;;;-141.59;100.00
11085;BME280;5596;46.826;8.650;2022-11-15T12:01:56;61776.25;;;-141.59;100.00
11085;BME280;5596;46.826;8.650;2022-11-15T12:04:30;61776.25;;;-141.59;100.00
11085;BME280;5596;46.826;8.650;2022-11-15T12:07:01;61776.25;;;-141.59;100.00
11085;BME280;5596;46.826;8.650;2022-11-15T12:09:35;61776.25;;;-141.59;100.00
11085;BME280;5596;46.826;8.650;2022-11-15T12:12:08;61776.25;;;-141.59;100.00
11085;BME280;5596;46.826;8.650;2022-11-15T12:14:42;61776.25;;;-141.59;100.00
11085;BME280;5596;46.826;8.650;2022-11-15T12:17:13;61776.25;;;-141.59;100.00
11085;BME280;5596;46.826;8.650;2022-11-15T12:19:41;61776.25;;;-141.59;100.00
11085;BME280;5596;46.826;8.650;2022-11-15T12:22:13;61776.25;;;-141.59;100.00
11085;BME280;5596;46.826;8.650;2022-11-15T12:24:51;61776.25;;;-141.59;100.00
11085;BME280;5596;46.826;8.650;2022-11-15T12:27:33;61776.25;;;-141.59;100.00
11085;BME280;5596;46.826;8.650;2022-11-15T12:30:07;61776.25;;;-141.59;100.00
11085;BME280;5596;46.826;8.650;2022-11-15T12:32:37;61776.25;;;-141.59;100.00
11085;BME280;5596;46.826;8.650;2022-11-15T12:35:23;61776.25;;;-141.59;100.00
11085;BME280;5596;46.826;8.650;2022-11-15T12:37:52;61776.25;;;-141.59;100.00
11085;BME280;5596;46.826;8.650;2022-11-15T12:40:26;61776.25;;;-141.59;100.00
11085;BME280;5596;46.826;8.650;2022-11-15T12:45:41;61776.25;;;-141.59;100.00
11085;BME280;5596;46.826;8.650;2022-11-15T12:55:00;61776.25;;;-141.59;100.00
11085;BME280;5596;46.826;8.650;2022-11-15T12:57:40;61776.25;;;-141.59;100.00
11085;BME280;5596;46.826;8.650;2022-11-15T13:00:41;61776.25;;;-141.59;100.00
11085;BME280;5596;46.826;8.650;2022-11-15T13:03:25;61776.25;;;-141.59;100.00
11085;BME280;5596;46.826;8.650;2022-11-15T13:05:57;61776.25;;;-141.59;100.00
11085;BME280;5596;46.826;8.650;2022-11-15T13:08:46;61776.25;;;-141.59;100.00
11085;BME280;5596;46.826;8.650;2022-11-15T13:11:51;61776.25;;;-141.59;100.00
11085;BME280;5596;46.826;8.650;2022-11-15T13:14:44;61776.25;;;-141.59;100.00
11085;BME280;5596;46.826;8.650;2022-11-15T13:17:30;61776.25;;;-141.59;100.00
11085;BME280;5596;46.826;8.650;2022-11-15T13:20:20;61776.25;;;-141.59;100.00
11085;BME280;5596;46.826;8.650;2022-11-15T13:22:49;61776.25;;;-141.59;100.00
11085;BME280;5596;46.826;8.650;2022-11-15T13:25:44;61776.25;;;-141.59;100.00
11085;BME280;5596;46.826;8.650;2022-11-15T13:28:22;61776.25;;;-141.59;100.00
11085;BME280;5596;46.826;8.650;2022-11-15T13:30:55;61776.25;;;-141.59;100.00
11085;BME280;5596;46.826;8.650;2022-11-15T13:33:26;61776.25;;;-141.59;100.00
11085;BME280;5596;46.826;8.650;2022-11-15T13:35:57;61776.25;;;-141.59;100.00
11085;BME280;5596;46.826;8.650;2022-11-15T13:38:28;61776.25;;;-141.59;100.00
11085;BME280;5596;46.826;8.650;2022-11-15T13:40:56;61776.25;;;-141.59;100.00
11085;BME280;5596;46.826;8.650;2022-11-15T13:43:29;61776.25;;;-141.59;100.00
11085;BME280;5596;46.826;8.650;2022-11-15T13:46:11;61776.25;;;-141.59;100.00
11085;BME280;5596;46.826;8.650;2022-11-15T13:48:40;61776.25;;;-141.59;100.00
11085;BME280;5596;46.826;8.650;2022-11-15T13:51:13;61776.25;;;-141.59;100.00
11085;BME280;5596;46.826;8.650;2022-11-15T13:53:46;61776.25;;;-141.59;100.00
11085;BME280;5596;46.826;8.650;2022-11-15T13:56:16;61776.25;;;-141.59;100.00
11085;BME280;5596;46.826;8.650;2022-11-15T13:58:43;61776.25;;;-141.59;100.00
11085;BME280;5596;46.826;8.650;2022-11-15T14:01:17;61776.25;;;-141.59;100.00
11085;BME280;5596;46.826;8.650;2022-11-15T14:03:55;61776.25;;;-141.59;100.00
11085;BME280;5596;46.826;8.650;2022-11-15T14:06:25;61776.25;;;-141.59;100.00
11085;BME280;5596;46.826;8.650;2022-11-15T14:11:53;61776.25;;;-141.59;100.00
11085;BME280;5596;46.826;8.650;2022-11-15T14:14:22;61776.25;;;-141.59;100.00
11085;BME280;5596;46.826;8.650;2022-11-15T14:16:53;61776.25;;;-141.59;100.00
11085;BME280;5596;46.826;8.650;2022-11-15T14:19:37;61776.25;;;-141.59;100.00
11085;BME280;5596;46.826;8.650;2022-11-15T14:22:16;61776.25;;;-141.59;100.00
11085;BME280;5596;46.826;8.650;2022-11-15T14:24:47;61776.25;;;-141.59;100.00
11085;BME280;5596;46.826;8.650;2022-11-15T14:27:31;61776.25;;;-141.59;100.00